Time;durP1;ratioP1;P1;durP2;ratioP2;P2;SDS_P1;SDS_P2;PMS_P1;PMS_P2;Temp;Humidity;BMP_temperature;BMP_pressure;BME280_temperature;BME280_humidity;BME280_pressure;Samples;Min_cycle;Max_cycle;Signal;HPM_P1;HPM_P2
2021/05/02 00:02:19;;;;;;;29.80;16.58;;;9.70;99.90;;;;;;6189817;23;20614;-84
2021/05/02 00:04:44;;;;;;;29.70;14.67;;;9.70;99.90;;;;;;6191348;23;20178;-84
2021/05/02 00:07:10;;;;;;;23.80;14.00;;;9.70;99.90;;;;;;6165059;23;20233;-84
2021/05/02 00:09:36;;;;;;;24.30;14.37;;;9.60;99.90;;;;;;6165541;23;20146;-84
2021/05/02 00:12:01;;;;;;;25.57;15.00;;;9.60;99.90;;;;;;6168202;23;20397;-84
2021/05/02 00:14:27;;;;;;;26.77;15.00;;;9.50;99.90;;;;;;6168494;23;20161;-84
2021/05/02 00:16:54;;;;;;;26.20;14.13;;;9.60;99.90;;;;;;6169562;23;20164;-84
2021/05/02 00:19:20;;;;;;;30.05;16.00;;;9.60;99.90;;;;;;6170181;23;20389;-84
2021/05/02 00:21:47;;;;;;;32.40;16.20;;;9.60;99.90;;;;;;6169376;23;20438;-85
2021/05/02 00:24:13;;;;;;;28.83;16.35;;;9.60;99.90;;;;;;6168631;23;20176;-85
2021/05/02 00:26:39;;;;;;;28.60;14.10;;;9.50;99.90;;;;;;6168690;23;20145;-84
2021/05/02 00:29:09;;;;;;;25.98;16.48;;;9.40;99.90;;;;;;6167861;23;20192;-85
2021/05/02 00:31:39;;;;;;;30.48;17.17;;;9.30;99.90;;;;;;6195236;23;20177;-85
2021/05/02 00:34:04;;;;;;;21.80;14.23;;;9.40;99.90;;;;;;6168494;23;20157;-84
2021/05/02 00:36:30;;;;;;;28.33;15.40;;;9.40;99.90;;;;;;6195720;23;20153;-84
2021/05/02 00:38:56;;;;;;;28.03;14.80;;;9.50;99.90;;;;;;6194781;23;20153;-84
2021/05/02 00:41:28;;;;;;;29.08;14.15;;;9.50;99.90;;;;;;6194231;23;20238;-84
2021/05/02 00:43:58;;;;;;;29.45;16.00;;;9.40;99.90;;;;;;6178013;23;20221;-84
2021/05/02 00:46:51;;;;;;;33.78;16.17;;;9.40;99.90;;;;;;6177030;23;20150;-85
2021/05/02 00:49:29;;;;;;;25.35;14.65;;;9.30;99.90;;;;;;6197232;23;20148;-83
2021/05/02 00:51:59;;;;;;;30.25;17.15;;;9.20;99.90;;;;;;6168473;23;20247;-85
2021/05/02 00:54:36;;;;;;;31.92;15.73;;;9.10;99.90;;;;;;6192038;23;20202;-84
2021/05/02 00:57:10;;;;;;;31.42;16.92;;;9.20;99.90;;;;;;6192266;23;20188;-85
2021/05/02 00:59:42;;;;;;;30.73;14.88;;;9.30;99.90;;;;;;6166089;23;20149;-84
2021/05/02 01:02:11;;;;;;;28.98;15.90;;;9.30;99.90;;;;;;6165972;23;20460;-84
2021/05/02 01:04:40;;;;;;;25.42;14.85;;;9.30;99.90;;;;;;6193116;23;20177;-85
2021/05/02 01:07:13;;;;;;;29.05;16.23;;;9.20;99.90;;;;;;6192403;23;20153;-85
2021/05/02 01:09:39;;;;;;;35.85;17.52;;;9.30;99.90;;;;;;6192410;23;20131;-84
2021/05/02 01:12:10;;;;;;;31.17;15.77;;;9.30;99.90;;;;;;6191655;23;20220;-85
2021/05/02 01:14:41;;;;;;;27.42;15.00;;;9.20;99.90;;;;;;6166004;23;20217;-83
2021/05/02 01:17:10;;;;;;;34.35;17.70;;;9.10;99.90;;;;;;6165186;23;20173;-85
2021/05/02 01:19:36;;;;;;;28.13;15.88;;;9.10;99.90;;;;;;6191313;23;20596;-84
2021/05/02 01:22:02;;;;;;;30.90;16.00;;;9.00;99.90;;;;;;6163943;23;20222;-84
2021/05/02 01:24:28;;;;;;;29.75;14.68;;;9.00;99.90;;;;;;6139968;23;20770;-84
2021/05/02 01:26:54;;;;;;;39.23;16.70;;;8.80;99.90;;;;;;6164117;23;20217;-84
2021/05/02 01:29:19;;;;;;;30.20;17.40;;;8.90;99.90;;;;;;6191231;23;20369;-83
2021/05/02 01:31:45;;;;;;;28.60;16.70;;;8.90;99.90;;;;;;6163783;23;20496;-84
2021/05/02 01:34:11;;;;;;;37.53;17.17;;;8.80;99.90;;;;;;6188333;23;20191;-84
2021/05/02 01:36:37;;;;;;;29.03;16.90;;;8.90;99.90;;;;;;6161792;23;20161;-84
2021/05/02 01:39:06;;;;;;;37.67;16.53;;;9.00;99.90;;;;;;6137410;23;20204;-84
2021/05/02 01:41:31;;;;;;;31.52;15.25;;;9.00;99.90;;;;;;6188168;23;20563;-85
2021/05/02 01:43:57;;;;;;;28.57;15.43;;;9.00;99.90;;;;;;6208451;23;20181;-83
2021/05/02 01:46:45;;;;;;;31.40;16.07;;;9.10;99.90;;;;;;6165195;23;20311;-84
2021/05/02 01:49:18;;;;;;;29.77;14.43;;;9.10;99.90;;;;;;6190249;23;20221;-83
2021/05/02 01:51:44;;;;;;;32.25;15.85;;;9.10;99.90;;;;;;6190759;23;20165;-83
2021/05/02 01:54:13;;;;;;;34.60;17.63;;;9.20;99.90;;;;;;6164219;23;20149;-84
2021/05/02 01:56:39;;;;;;;38.15;16.45;;;9.30;99.90;;;;;;6191180;23;20214;-84
2021/05/02 01:59:05;;;;;;;33.60;16.05;;;9.30;99.90;;;;;;6190622;23;20228;-84
2021/05/02 02:01:32;;;;;;;28.13;17.03;;;9.30;99.90;;;;;;6163578;23;20169;-83
2021/05/02 02:04:01;;;;;;;32.47;17.15;;;9.10;99.90;;;;;;6164242;23;20540;-84
2021/05/02 02:06:27;;;;;;;34.45;16.27;;;9.20;99.90;;;;;;6195802;23;20153;-84
2021/05/02 02:08:53;;;;;;;31.42;15.65;;;9.20;99.90;;;;;;6171350;23;20153;-84
2021/05/02 02:11:20;;;;;;;26.57;15.90;;;9.10;99.90;;;;;;6139132;23;20224;-83
2021/05/02 02:13:49;;;;;;;32.97;15.73;;;9.20;99.90;;;;;;6189687;23;20381;-84
2021/05/02 02:16:15;;;;;;;28.35;14.82;;;9.00;99.90;;;;;;6188974;23;20150;-84
2021/05/02 02:18:42;;;;;;;30.80;17.30;;;9.00;99.90;;;;;;6162647;23;20158;-84
2021/05/02 02:21:09;;;;;;;34.30;17.05;;;9.20;99.90;;;;;;6162279;23;20177;-84
2021/05/02 02:23:38;;;;;;;26.90;15.70;;;9.30;99.90;;;;;;6163039;23;20203;-84
2021/05/02 02:26:30;;;;;;;32.22;16.33;;;9.30;99.90;;;;;;6189657;23;20233;-83
2021/05/02 02:28:58;;;;;;;27.85;15.13;;;9.30;99.90;;;;;;6189124;23;20145;-83
2021/05/02 02:31:23;;;;;;;31.55;15.40;;;9.20;99.90;;;;;;6187265;23;20185;-84
2021/05/02 02:33:50;;;;;;;30.87;17.20;;;9.10;99.90;;;;;;6188320;23;20149;-84
2021/05/02 02:36:17;;;;;;;36.85;16.48;;;9.10;99.90;;;;;;6137670;23;20216;-83
2021/05/02 02:38:44;;;;;;;32.20;15.45;;;9.10;99.90;;;;;;6137877;23;20162;-83
2021/05/02 02:41:15;;;;;;;47.00;19.33;;;9.20;99.90;;;;;;6162086;23;20178;-83
2021/05/02 02:43:47;;;;;;;33.20;16.92;;;9.10;99.90;;;;;;6186341;23;20252;-83
2021/05/02 02:46:17;;;;;;;28.77;15.75;;;9.20;99.90;;;;;;6162126;23;20148;-84
2021/05/02 02:48:45;;;;;;;36.40;16.85;;;9.20;99.90;;;;;;6188132;23;20205;-84
2021/05/02 02:51:12;;;;;;;37.00;18.55;;;9.10;99.90;;;;;;6162852;23;20176;-84
2021/05/02 02:53:42;;;;;;;35.40;18.42;;;9.00;99.90;;;;;;6189648;23;20240;-84
2021/05/02 02:56:14;;;;;;;33.20;17.10;;;9.00;99.90;;;;;;6190032;23;20153;-84
2021/05/02 02:58:44;;;;;;;30.15;16.00;;;9.00;99.90;;;;;;6189631;23;20149;-84
2021/05/02 03:01:10;;;;;;;38.10;17.40;;;8.90;99.90;;;;;;6163010;23;20709;-85
2021/05/02 03:03:41;;;;;;;31.98;16.83;;;8.80;99.90;;;;;;6189306;23;20180;-84
2021/05/02 03:06:07;;;;;;;32.40;16.98;;;8.90;99.90;;;;;;6188289;23;20623;-84
2021/05/02 03:08:37;;;;;;;37.00;16.33;;;8.80;99.90;;;;;;6189662;23;20146;-83
2021/05/02 03:11:03;;;;;;;29.35;15.50;;;8.90;99.90;;;;;;6162341;23;20647;-84
2021/05/02 03:13:29;;;;;;;30.90;16.27;;;9.00;99.90;;;;;;6186441;23;20154;-84
2021/05/02 03:15:57;;;;;;;30.58;16.05;;;9.00;99.90;;;;;;6162585;23;20157;-84
2021/05/02 03:18:30;;;;;;;38.30;17.83;;;9.00;99.90;;;;;;6188351;23;20145;-84
2021/05/02 03:21:03;;;;;;;37.95;17.80;;;9.00;99.90;;;;;;6162218;23;20204;-83
2021/05/02 03:23:32;;;;;;;30.98;17.20;;;8.90;99.90;;;;;;6162169;23;20177;-84
2021/05/02 03:26:03;;;;;;;31.67;19.08;;;8.80;99.90;;;;;;6188169;23;20149;-84
2021/05/02 03:28:33;;;;;;;34.47;16.33;;;8.80;99.90;;;;;;6162147;23;20181;-84
2021/05/02 03:31:01;;;;;;;29.73;15.93;;;8.90;99.90;;;;;;6162901;23;20181;-84
2021/05/02 03:33:32;;;;;;;29.75;15.07;;;8.80;99.90;;;;;;6189622;23;20154;-83
2021/05/02 03:36:00;;;;;;;33.95;16.95;;;8.80;99.90;;;;;;6190479;23;20149;-84
2021/05/02 03:38:30;;;;;;;28.48;15.55;;;8.80;99.90;;;;;;6162576;23;20157;-84
2021/05/02 03:40:58;;;;;;;29.95;16.58;;;8.80;99.90;;;;;;6163095;23;20180;-85
2021/05/02 03:43:24;;;;;;;32.10;16.83;;;8.90;99.90;;;;;;6189971;23;20216;-84
2021/05/02 03:45:49;;;;;;;38.77;17.77;;;9.00;99.90;;;;;;6163223;23;20146;-83
2021/05/02 03:48:15;;;;;;;30.77;15.90;;;8.80;99.90;;;;;;6189300;23;20595;-84
2021/05/02 03:50:41;;;;;;;36.37;19.10;;;8.80;99.90;;;;;;6163893;23;20184;-83
2021/05/02 03:53:07;;;;;;;28.48;15.77;;;9.00;99.90;;;;;;6162828;23;20228;-84
2021/05/02 03:55:40;;;;;;;31.63;16.10;;;8.90;99.90;;;;;;6163535;23;20154;-84
2021/05/02 03:58:14;;;;;;;35.90;17.10;;;8.90;99.90;;;;;;6188157;23;20625;-84
2021/05/02 04:00:40;;;;;;;36.45;19.23;;;9.10;99.90;;;;;;6189294;23;20166;-83
2021/05/02 04:03:06;;;;;;;33.25;16.70;;;9.00;99.90;;;;;;6189618;23;20300;-84
2021/05/02 04:05:32;;;;;;;29.07;16.40;;;8.90;99.90;;;;;;6190153;23;20142;-83
2021/05/02 04:07:57;;;;;;;33.80;16.93;;;8.90;99.90;;;;;;6163581;23;20814;-84
2021/05/02 04:10:23;;;;;;;42.00;17.37;;;8.80;99.90;;;;;;6163462;23;20412;-83
2021/05/02 04:12:49;;;;;;;28.77;15.57;;;8.90;99.90;;;;;;6163665;23;20224;-84
2021/05/02 04:15:15;;;;;;;35.13;17.90;;;8.80;99.90;;;;;;6192392;23;20180;-84
2021/05/02 04:17:41;;;;;;;32.90;17.00;;;8.90;99.90;;;;;;6197713;23;20377;-84
2021/05/02 04:20:07;;;;;;;37.50;18.60;;;8.90;99.90;;;;;;6191269;23;20408;-83
2021/05/02 04:22:32;;;;;;;30.60;17.23;;;9.00;99.90;;;;;;6187802;23;20157;-83
2021/05/02 04:24:58;;;;;;;29.60;17.00;;;8.90;99.90;;;;;;6162518;23;20511;-83
2021/05/02 04:27:24;;;;;;;33.53;16.63;;;8.90;99.90;;;;;;6137321;23;20161;-85
2021/05/02 04:29:49;;;;;;;26.57;16.20;;;8.90;99.90;;;;;;6162539;23;20452;-85
2021/05/02 04:32:15;;;;;;;32.20;16.97;;;8.80;99.90;;;;;;6189028;23;20623;-85
2021/05/02 04:34:41;;;;;;;42.20;18.73;;;8.80;99.90;;;;;;6188389;23;20153;-85
2021/05/02 04:37:07;;;;;;;38.80;17.20;;;8.70;99.90;;;;;;6162569;23;20491;-85
2021/05/02 04:39:36;;;;;;;50.50;20.00;;;8.70;99.90;;;;;;6163295;23;20373;-84
2021/05/02 04:42:01;;;;;;;39.97;17.33;;;8.70;99.90;;;;;;6144424;23;20200;-84
2021/05/02 04:44:27;;;;;;;36.03;17.77;;;8.70;99.90;;;;;;6201539;23;20173;-83
2021/05/02 04:46:53;;;;;;;28.90;16.60;;;8.70;99.90;;;;;;6139266;23;20284;-84
2021/05/02 04:49:20;;;;;;;33.17;16.80;;;8.60;99.90;;;;;;6189549;23;20231;-83
2021/05/02 04:51:47;;;;;;;32.40;15.90;;;8.60;99.90;;;;;;6188782;23;20165;-83
2021/05/02 04:54:13;;;;;;;29.35;17.00;;;8.70;99.90;;;;;;6188658;23;20200;-83
2021/05/02 04:56:39;;;;;;;34.80;17.03;;;8.60;99.90;;;;;;6162120;23;20161;-84
2021/05/02 04:59:06;;;;;;;31.92;18.30;;;8.70;99.90;;;;;;6188535;23;20476;-83
2021/05/02 05:01:32;;;;;;;35.70;17.15;;;8.70;99.90;;;;;;6163563;23;20627;-84
2021/05/02 05:04:00;;;;;;;42.25;18.00;;;8.50;99.90;;;;;;6190311;23;20177;-82
2021/05/02 05:06:26;;;;;;;32.97;18.40;;;8.50;99.90;;;;;;6190713;23;20520;-83
2021/05/02 05:08:54;;;;;;;27.23;15.70;;;8.50;99.90;;;;;;6164543;23;20146;-82
2021/05/02 05:11:21;;;;;;;30.10;15.50;;;8.50;99.90;;;;;;6190231;23;20169;-83
2021/05/02 05:13:49;;;;;;;33.45;16.27;;;8.50;99.90;;;;;;6189634;23;20538;-83
2021/05/02 05:16:15;;;;;;;35.97;16.75;;;8.60;99.90;;;;;;6190316;23;20228;-83
2021/05/02 05:18:40;;;;;;;31.13;17.70;;;8.60;99.90;;;;;;6186570;23;20146;-84
2021/05/02 05:21:06;;;;;;;30.40;17.83;;;8.50;99.90;;;;;;6192519;23;20397;-83
2021/05/02 05:23:34;;;;;;;31.93;16.60;;;8.50;99.90;;;;;;6190440;23;20510;-82
2021/05/02 05:26:00;;;;;;;33.55;15.18;;;8.50;99.90;;;;;;6191924;23;20172;-83
2021/05/02 05:28:26;;;;;;;31.47;16.47;;;8.50;99.90;;;;;;6161311;23;20683;-82
2021/05/02 05:31:12;;;;;;;24.87;15.97;;;8.50;99.90;;;;;;6190089;23;20695;-83
2021/05/02 05:33:38;;;;;;;35.78;17.02;;;8.50;99.90;;;;;;6186570;23;20408;-83
2021/05/02 05:36:04;;;;;;;28.87;16.90;;;8.60;99.90;;;;;;6187993;23;20467;-83
2021/05/02 05:38:32;;;;;;;47.30;17.00;;;8.70;99.90;;;;;;6162391;23;20158;-84
2021/05/02 05:40:58;;;;;;;25.75;15.75;;;8.70;99.90;;;;;;6161851;23;20216;-83
2021/05/02 05:43:23;;;;;;;37.57;16.10;;;8.70;99.90;;;;;;6162471;23;20502;-84
2021/05/02 05:45:49;;;;;;;34.20;16.27;;;8.70;99.90;;;;;;6161937;23;20622;-84
2021/05/02 05:48:16;;;;;;;28.33;16.77;;;8.60;99.90;;;;;;6189245;23;20145;-84
2021/05/02 05:50:46;;;;;;;31.55;17.30;;;8.70;99.90;;;;;;6189008;23;20197;-84
2021/05/02 05:53:12;;;;;;;41.10;19.05;;;8.50;99.90;;;;;;6164944;23;20158;-85
2021/05/02 05:55:37;;;;;;;28.77;16.20;;;8.50;99.90;;;;;;6189434;23;20600;-83
2021/05/02 05:58:03;;;;;;;33.43;17.53;;;8.60;99.90;;;;;;6136787;23;20180;-83
2021/05/02 06:00:31;;;;;;;31.30;15.40;;;8.70;99.90;;;;;;6187508;23;20169;-83
2021/05/02 06:02:57;;;;;;;25.65;14.82;;;8.70;99.90;;;;;;6162165;23;20599;-83
2021/05/02 06:05:22;;;;;;;34.27;15.77;;;8.60;99.90;;;;;;6187680;23;20201;-85
2021/05/02 06:07:48;;;;;;;30.17;15.80;;;8.60;99.90;;;;;;6187954;23;20148;-83
2021/05/02 06:10:14;;;;;;;23.43;15.93;;;8.80;99.90;;;;;;6187623;23;20165;-83
2021/05/02 06:12:40;;;;;;;28.63;15.63;;;8.60;99.90;;;;;;6187305;23;20229;-82
2021/05/02 06:15:06;;;;;;;28.73;14.05;;;8.70;99.90;;;;;;6162269;23;20157;-84
2021/05/02 06:17:32;;;;;;;27.27;13.25;;;8.70;99.90;;;;;;6164014;23;20158;-83
2021/05/02 06:19:58;;;;;;;26.97;14.77;;;8.60;99.90;;;;;;6137413;23;20173;-83
2021/05/02 06:22:23;;;;;;;31.23;15.03;;;8.70;99.90;;;;;;6159950;23;20595;-82
2021/05/02 06:24:52;;;;;;;23.53;13.23;;;8.70;99.90;;;;;;6160942;23;20428;-84
2021/05/02 06:27:17;;;;;;;26.13;14.15;;;8.70;99.90;;;;;;6162038;23;20218;-83
2021/05/02 06:29:43;;;;;;;25.40;13.37;;;8.70;99.90;;;;;;6193312;23;20149;-84
2021/05/02 06:32:08;;;;;;;31.23;14.50;;;8.90;99.90;;;;;;6164642;23;20165;-84
2021/05/02 06:34:34;;;;;;;26.57;14.00;;;9.00;99.90;;;;;;6168055;23;20165;-84
2021/05/02 06:37:03;;;;;;;24.07;14.73;;;9.10;99.90;;;;;;6166721;23;20157;-84
2021/05/02 06:39:31;;;;;;;23.23;12.80;;;9.30;99.90;;;;;;6164723;23;20236;-84
2021/05/02 06:41:57;;;;;;;24.35;14.35;;;9.40;99.90;;;;;;6192323;23;20192;-84
2021/05/02 06:44:23;;;;;;;23.20;13.23;;;9.40;99.90;;;;;;6144726;23;20181;-85
2021/05/02 06:46:48;;;;;;;27.70;14.43;;;9.20;99.90;;;;;;6194533;23;20150;-84
2021/05/02 06:49:17;;;;;;;20.07;13.13;;;9.40;99.90;;;;;;6196126;23;20152;-84
2021/05/02 06:51:50;;;;;;;22.15;13.10;;;9.50;99.90;;;;;;6144547;23;20173;-84
2021/05/02 06:54:15;;;;;;;26.52;14.65;;;9.30;99.90;;;;;;6195634;23;20154;-85
2021/05/02 06:56:41;;;;;;;27.97;14.83;;;9.20;99.90;;;;;;6169974;23;20160;-82
2021/05/02 06:59:06;;;;;;;29.27;15.63;;;8.90;99.90;;;;;;6170030;23;20150;-84
2021/05/02 07:01:32;;;;;;;28.73;15.17;;;8.80;99.90;;;;;;6196057;23;20165;-83
2021/05/02 07:03:58;;;;;;;26.50;15.70;;;8.80;99.90;;;;;;6146279;23;20181;-84
2021/05/02 07:06:24;;;;;;;21.50;13.70;;;8.80;99.90;;;;;;6170680;23;20368;-85
2021/05/02 07:08:53;;;;;;;25.23;14.23;;;8.80;99.90;;;;;;6196638;23;20152;-84
2021/05/02 07:11:21;;;;;;;27.80;15.50;;;9.00;99.90;;;;;;6170262;23;20169;-84
2021/05/02 07:13:47;;;;;;;27.30;15.02;;;8.90;99.90;;;;;;6170097;23;20164;-83
2021/05/02 07:16:12;;;;;;;25.40;14.67;;;8.80;99.90;;;;;;6169096;23;20158;-83
2021/05/02 07:18:39;;;;;;;23.27;15.43;;;8.80;99.90;;;;;;6194292;23;20149;-84
2021/05/02 07:21:06;;;;;;;27.15;13.65;;;8.90;99.90;;;;;;6169179;23;20235;-85
2021/05/02 07:23:36;;;;;;;21.67;14.10;;;8.90;99.90;;;;;;6168579;23;20203;-83
2021/05/02 07:26:01;;;;;;;26.67;15.95;;;8.80;99.90;;;;;;6168810;23;20157;-83
2021/05/02 07:28:27;;;;;;;29.63;15.70;;;8.80;99.90;;;;;;6193454;23;20239;-83
2021/05/02 07:30:52;;;;;;;21.90;13.43;;;8.80;99.90;;;;;;6166290;23;20189;-84
2021/05/02 07:33:18;;;;;;;30.93;15.40;;;8.90;99.90;;;;;;6166009;23;20153;-84
2021/05/02 07:35:44;;;;;;;25.10;14.20;;;9.00;99.90;;;;;;6165656;23;20157;-84
2021/05/02 07:38:11;;;;;;;24.03;14.03;;;9.10;99.90;;;;;;6142459;23;20384;-84
2021/05/02 07:40:36;;;;;;;21.55;14.60;;;9.10;99.90;;;;;;6166918;23;20173;-84
2021/05/02 07:43:02;;;;;;;24.23;14.47;;;9.00;99.90;;;;;;6141813;23;20156;-84
2021/05/02 07:45:30;;;;;;;25.97;15.00;;;9.10;99.90;;;;;;6142637;23;20189;-84
2021/05/02 07:47:56;;;;;;;32.72;16.77;;;9.20;99.90;;;;;;6190999;23;20726;-84
2021/05/02 07:50:21;;;;;;;23.60;14.20;;;9.30;99.90;;;;;;6166965;23;20171;-85
2021/05/02 07:52:47;;;;;;;21.80;13.13;;;9.40;99.90;;;;;;6193452;23;20148;-86
2021/05/02 07:55:13;;;;;;;25.83;14.07;;;9.60;99.90;;;;;;6172426;23;20177;-87
2021/05/02 07:57:38;;;;;;;23.20;14.20;;;9.60;99.90;;;;;;6192659;23;20212;-86
2021/05/02 08:00:05;;;;;;;21.27;13.00;;;9.60;99.90;;;;;;6193212;23;20177;-86
2021/05/02 08:02:31;;;;;;;22.67;14.45;;;9.50;99.90;;;;;;6197618;23;20157;-86
2021/05/02 08:04:57;;;;;;;25.93;15.10;;;9.30;99.90;;;;;;6167683;23;20547;-86
2021/05/02 08:07:22;;;;;;;29.37;14.50;;;9.10;99.90;;;;;;6191045;23;20157;-85
2021/05/02 08:09:48;;;;;;;27.80;13.63;;;9.10;99.90;;;;;;6166304;23;20152;-85
2021/05/02 08:12:14;;;;;;;27.80;15.83;;;9.00;99.90;;;;;;6165057;23;20665;-84
2021/05/02 08:14:40;;;;;;;29.33;15.32;;;9.00;99.90;;;;;;6193466;23;20153;-84
2021/05/02 08:17:06;;;;;;;27.53;14.33;;;8.90;99.90;;;;;;6166449;23;20669;-85
2021/05/02 08:19:32;;;;;;;28.80;14.07;;;8.90;99.90;;;;;;6162980;23;20160;-86
2021/05/02 08:22:00;;;;;;;30.92;15.85;;;8.90;99.90;;;;;;6164148;23;20280;-84
2021/05/02 08:24:25;;;;;;;26.23;14.32;;;8.80;99.90;;;;;;6190978;23;20257;-84
2021/05/02 08:26:51;;;;;;;23.33;14.03;;;8.80;99.90;;;;;;6190693;23;20531;-85
2021/05/02 08:29:16;;;;;;;28.87;16.70;;;8.80;99.90;;;;;;6195302;23;20145;-86
2021/05/02 08:31:42;;;;;;;23.93;13.67;;;8.70;99.90;;;;;;6171503;23;20189;-85
2021/05/02 08:34:07;;;;;;;27.87;15.23;;;8.70;99.90;;;;;;6170237;23;20160;-84
2021/05/02 08:36:33;;;;;;;20.73;14.50;;;8.70;99.90;;;;;;6170209;23;20161;-84
2021/05/02 08:38:59;;;;;;;29.57;15.30;;;8.70;99.90;;;;;;6172022;23;20149;-86
2021/05/02 08:41:25;;;;;;;25.67;14.33;;;8.70;99.90;;;;;;6144482;23;20174;-85
2021/05/02 08:43:52;;;;;;;27.17;17.60;;;8.80;99.90;;;;;;6168641;23;20177;-85
2021/05/02 08:46:18;;;;;;;26.17;15.55;;;8.80;99.90;;;;;;6167355;23;20771;-86
2021/05/02 08:48:44;;;;;;;30.57;16.70;;;8.80;99.90;;;;;;6169501;23;20149;-87
2021/05/02 08:51:09;;;;;;;28.73;16.67;;;8.90;99.90;;;;;;6195666;23;20874;-86
2021/05/02 08:53:35;;;;;;;25.80;17.53;;;8.90;99.90;;;;;;6194539;23;20152;-85
2021/05/02 08:56:03;;;;;;;26.87;16.53;;;9.20;99.90;;;;;;6165821;23;20507;-87
2021/05/02 08:58:29;;;;;;;28.20;16.52;;;9.40;99.90;;;;;;6168315;23;20487;-84
2021/05/02 09:01:00;;;;;;;28.20;16.60;;;9.20;99.90;;;;;;6168718;23;20438;-86
2021/05/02 09:03:41;;;;;;;29.85;15.93;;;9.20;99.90;;;;;;6165956;23;20630;-86
2021/05/02 09:06:19;;;;;;;27.73;17.38;;;9.20;99.90;;;;;;6166448;23;20224;-86
2021/05/02 09:08:50;;;;;;;30.50;17.27;;;9.20;99.90;;;;;;6193590;23;20142;-85
2021/05/02 09:11:28;;;;;;;26.15;15.70;;;9.20;99.90;;;;;;6167368;23;20181;-86
2021/05/02 09:13:54;;;;;;;29.08;17.55;;;9.10;99.90;;;;;;6199125;23;20137;-86
2021/05/02 09:16:20;;;;;;;27.42;16.30;;;9.20;99.90;;;;;;6175208;23;20161;-86
2021/05/02 09:18:49;;;;;;;29.97;17.90;;;9.20;99.90;;;;;;6175671;23;20725;-86
2021/05/02 09:21:31;;;;;;;31.58;18.15;;;9.20;99.90;;;;;;6176518;23;20396;-87
2021/05/02 09:24:07;;;;;;;26.13;16.20;;;9.30;99.90;;;;;;6174876;23;20170;-85
2021/05/02 09:26:39;;;;;;;28.63;16.35;;;9.20;99.90;;;;;;6176749;23;20165;-86
2021/05/02 09:29:08;;;;;;;27.75;15.73;;;9.20;99.90;;;;;;6201244;23;20157;-86
2021/05/02 09:31:35;;;;;;;27.58;16.08;;;9.10;99.90;;;;;;6194467;23;20211;-87
2021/05/02 09:34:15;;;;;;;27.60;17.85;;;9.20;99.90;;;;;;6145392;23;20157;-87
2021/05/02 09:37:04;;;;;;;36.55;17.15;;;9.20;99.90;;;;;;6170873;23;20134;-86
2021/05/02 09:39:56;;;;;;;32.22;18.40;;;9.30;99.90;;;;;;6171474;23;20180;-85
2021/05/02 09:42:48;;;;;;;31.63;17.30;;;9.20;99.90;;;;;;6169941;23;20224;-86
2021/05/02 09:45:14;;;;;;;28.52;15.38;;;9.30;99.90;;;;;;6198944;23;20681;-86
2021/05/02 09:51:45;;;;;;;;;;;;;;;;;;;;;
2021/05/02 09:54:16;;;;;;;33.08;16.35;;;9.50;99.90;;;;;;6177104;23;20176;-86
2021/05/02 09:56:49;;;;;;;22.73;14.70;;;9.50;99.90;;;;;;6197212;23;20217;-84
2021/05/02 09:59:32;;;;;;;31.48;16.08;;;9.60;99.90;;;;;;6178464;23;20571;-85
2021/05/02 10:02:10;;;;;;;31.13;17.92;;;9.70;99.90;;;;;;6199699;23;20193;-84
2021/05/02 10:04:44;;;;;;;27.77;15.43;;;9.90;99.90;;;;;;6197581;23;20200;-84
2021/05/02 10:07:13;;;;;;;29.38;17.75;;;10.00;99.90;;;;;;6196299;23;20137;-85
2021/05/02 10:09:39;;;;;;;33.03;18.40;;;10.10;99.90;;;;;;6195461;23;20137;-84
2021/05/02 10:12:06;;;;;;;26.13;16.33;;;10.10;99.90;;;;;;6194232;23;20172;-84
2021/05/02 10:14:33;;;;;;;27.27;15.77;;;9.90;99.90;;;;;;6192545;23;20172;-84
2021/05/02 10:17:00;;;;;;;30.05;16.95;;;9.80;99.90;;;;;;6193248;23;20169;-84
2021/05/02 10:19:28;;;;;;;24.80;14.98;;;9.70;99.90;;;;;;6195751;23;20184;-82
2021/05/02 10:21:54;;;;;;;30.02;16.83;;;9.70;99.90;;;;;;6196320;23;20173;-82
2021/05/02 10:24:20;;;;;;;31.05;16.08;;;9.80;99.90;;;;;;6193771;23;20169;-83
2021/05/02 10:26:46;;;;;;;28.87;17.00;;;9.90;99.90;;;;;;6190835;23;20199;-82
2021/05/02 10:29:11;;;;;;;26.30;16.83;;;10.00;99.90;;;;;;6165828;23;20149;-83
2021/05/02 10:31:41;;;;;;;25.07;15.10;;;10.10;99.90;;;;;;6189980;23;20408;-82
2021/05/02 10:34:31;;;;;;;27.98;15.63;;;10.40;99.90;;;;;;6189566;23;20228;-81
2021/05/02 10:37:27;;;;;;;31.30;16.17;;;10.60;99.90;;;;;;6162527;23;20487;-82
2021/05/02 10:39:59;;;;;;;23.02;13.35;;;10.80;99.90;;;;;;6178469;23;20153;-82
2021/05/02 10:42:50;;;;;;;21.33;14.52;;;11.00;99.90;;;;;;6161920;23;20219;-82
2021/05/02 10:45:28;;;;;;;129.90;62.65;;;11.20;99.90;;;;;;6164496;23;20600;-81
2021/05/02 10:47:58;;;;;;;28.00;15.02;;;11.20;99.90;;;;;;6163635;23;20149;-84
2021/05/02 10:50:33;;;;;;;21.58;13.70;;;11.10;99.90;;;;;;6190499;23;20176;-81
2021/05/02 10:53:17;;;;;;;25.33;15.73;;;11.10;99.90;;;;;;6145660;23;20149;-83
2021/05/02 10:55:59;;;;;;;22.58;14.27;;;11.30;99.90;;;;;;6190220;23;20141;-83
2021/05/02 10:58:30;;;;;;;24.80;15.15;;;11.10;99.90;;;;;;6190250;23;20130;-83
2021/05/02 11:01:02;;;;;;;22.35;15.00;;;11.00;99.90;;;;;;6164988;23;20188;-84
2021/05/02 11:03:40;;;;;;;26.15;15.30;;;11.00;99.90;;;;;;6162706;23;20141;-82
2021/05/02 11:06:13;;;;;;;25.50;14.15;;;11.30;99.90;;;;;;6164980;23;20157;-82
2021/05/02 11:09:00;;;;;;;22.95;14.80;;;11.40;99.90;;;;;;6163474;23;20145;-83
2021/05/02 11:11:38;;;;;;;20.50;13.50;;;11.40;99.90;;;;;;6163201;23;20631;-81
2021/05/02 11:14:21;;;;;;;19.88;14.13;;;11.60;99.90;;;;;;6189722;23;20130;-82
2021/05/02 11:17:12;;;;;;;21.15;13.02;;;11.60;99.90;;;;;;6193455;23;20149;-82
2021/05/02 11:19:38;;;;;;;20.60;12.95;;;11.30;99.90;;;;;;6190689;23;20480;-82
2021/05/02 11:22:06;;;;;;;19.77;12.55;;;11.60;99.90;;;;;;6190828;23;20215;-81
2021/05/02 11:24:52;;;;;;;22.23;12.80;;;11.60;99.90;;;;;;6189020;23;20173;-81
2021/05/02 11:27:26;;;;;;;23.40;13.63;;;11.60;99.90;;;;;;6190479;23;20133;-82
2021/05/02 11:32:28;;;;;;;16.83;11.38;;;12.00;99.90;;;;;;6190216;23;20640;-81
2021/05/02 11:35:07;;;;;;;20.10;12.55;;;12.30;99.90;;;;;;6164123;23;20181;-82
2021/05/02 11:37:50;;;;;;;;;;;;;;;;;;;;;
2021/05/02 11:43:07;;;;;;;17.00;11.20;;;12.60;99.90;;;;;;6189592;23;20181;-82
2021/05/02 11:45:47;;;;;;;56.60;33.25;;;12.60;99.90;;;;;;6164721;23;20260;-82
2021/05/02 11:48:23;;;;;;;27.02;15.35;;;12.60;99.90;;;;;;6188872;23;20156;-81
2021/05/02 11:50:52;;;;;;;20.00;12.23;;;12.50;99.90;;;;;;6161183;23;20187;-83
2021/05/02 11:53:41;;;;;;;21.55;14.10;;;12.50;99.90;;;;;;6186930;23;20149;-82
2021/05/02 11:56:29;;;;;;;;;;;;;;;;;;;;;
2021/05/02 11:59:00;;;;;;;36.90;13.13;;;11.90;99.90;;;;;;6199806;23;20480;-83
2021/05/02 12:01:40;;;;;;;;;;;;;;;;;;;;;
2021/05/02 12:04:14;;;;;;;20.20;13.15;;;12.30;99.90;;;;;;6192457;23;20189;-85
2021/05/02 12:06:40;;;;;;;23.15;12.88;;;12.40;99.90;;;;;;6167471;23;20521;-83
2021/05/02 12:09:13;;;;;;;21.60;12.73;;;12.60;99.90;;;;;;6166592;23;20165;-84
2021/05/02 12:11:44;;;;;;;34.03;19.23;;;12.60;99.90;;;;;;6167973;23;20444;-86
2021/05/02 12:14:18;;;;;;;24.25;15.88;;;12.60;99.90;;;;;;6166945;23;20165;-84
2021/05/02 12:16:52;;;;;;;21.63;13.65;;;12.40;99.90;;;;;;6166685;23;20146;-87
2021/05/02 12:19:31;;;;;;;24.20;14.45;;;12.40;99.90;;;;;;6167067;23;20153;-87
2021/05/02 12:22:00;;;;;;;25.08;14.55;;;12.40;99.90;;;;;;6164633;23;20169;-85
2021/05/02 12:24:30;;;;;;;21.98;13.13;;;12.50;99.90;;;;;;6162857;23;20185;-85
2021/05/02 12:27:04;;;;;;;20.40;14.20;;;12.20;99.90;;;;;;6162800;23;20153;-85
2021/05/02 12:29:32;;;;;;;26.10;14.52;;;12.20;99.90;;;;;;6162257;23;20205;-87
2021/05/02 12:32:04;;;;;;;29.85;14.77;;;12.20;99.90;;;;;;6188503;23;20212;-84
2021/05/02 12:34:35;;;;;;;28.38;15.13;;;12.00;99.90;;;;;;6162853;23;20160;-85
2021/05/02 12:37:17;;;;;;;30.05;15.70;;;11.80;99.90;;;;;;6190432;23;20137;-84
2021/05/02 12:39:47;;;;;;;22.27;13.63;;;11.80;99.90;;;;;;6192915;23;20520;-86
2021/05/02 12:42:13;;;;;;;21.85;13.32;;;12.10;99.90;;;;;;6189587;23;20145;-85
2021/05/02 12:44:56;;;;;;;17.27;12.30;;;12.30;99.90;;;;;;6191643;23;20212;-85
2021/05/02 12:47:30;;;;;;;20.15;13.38;;;12.40;99.90;;;;;;6193447;23;20353;-85
2021/05/02 12:50:13;;;;;;;34.83;13.65;;;12.50;99.90;;;;;;6191301;23;20153;-86
2021/05/02 12:53:00;;;;;;;18.35;12.30;;;12.60;99.90;;;;;;6191554;23;20132;-85
2021/05/02 12:55:27;;;;;;;19.23;12.48;;;12.60;99.90;;;;;;6165903;23;20165;-85
2021/05/02 12:57:57;;;;;;;19.75;12.32;;;12.50;99.90;;;;;;6192421;23;20201;-84
2021/05/02 13:00:32;;;;;;;23.83;11.60;;;12.50;99.90;;;;;;6194751;23;20191;-85
2021/05/02 13:02:58;;;;;;;18.40;11.77;;;12.60;99.90;;;;;;6195790;23;20140;-84